Time;durP1;ratioP1;P1;durP2;ratioP2;P2;SDS_P1;SDS_P2;PMS_P1;PMS_P2;Temp;Humidity;BMP_temperature;BMP_pressure;BME280_temperature;BME280_humidity;BME280_pressure;Samples;Min_cycle;Max_cycle;Signal;HPM_P1;HPM_P2
2023/12/18 00:01:36;;;;;;;58.90;28.25;;;0.00;99.90;;;;;;5036213;28;20024;-71
2023/12/18 00:04:03;;;;;;;58.47;26.63;;;0.10;99.90;;;;;;5041032;28;20033;-71
2023/12/18 00:06:29;;;;;;;51.05;24.45;;;0.00;99.90;;;;;;5040607;28;20056;-71
2023/12/18 00:08:55;;;;;;;49.70;24.02;;;0.10;99.90;;;;;;5038498;28;20512;-71
2023/12/18 00:11:21;;;;;;;60.97;28.00;;;0.00;99.90;;;;;;5036545;28;20071;-71
2023/12/18 00:13:46;;;;;;;57.93;26.77;;;0.00;99.90;;;;;;5044656;28;20286;-71
2023/12/18 00:16:12;;;;;;;58.23;27.63;;;0.00;99.90;;;;;;5046595;28;20029;-71
2023/12/18 00:18:38;;;;;;;55.40;25.27;;;0.00;99.90;;;;;;5046873;28;21009;-71
2023/12/18 00:21:03;;;;;;;57.47;26.57;;;-0.10;99.90;;;;;;5039539;28;20033;-72
2023/12/18 00:23:29;;;;;;;52.78;25.75;;;-0.10;99.90;;;;;;5039224;28;20326;-72
2023/12/18 00:25:55;;;;;;;54.00;26.15;;;-0.10;99.90;;;;;;5038578;28;20028;-72
2023/12/18 00:28:20;;;;;;;58.63;26.05;;;-0.20;99.90;;;;;;5035094;28;20394;-72
2023/12/18 00:30:46;;;;;;;57.27;25.73;;;-0.20;99.90;;;;;;5040045;28;20496;-71
2023/12/18 00:33:11;;;;;;;51.53;26.02;;;-0.20;99.90;;;;;;5036203;28;20453;-71
2023/12/18 00:35:37;;;;;;;53.70;26.60;;;-0.40;99.90;;;;;;5043557;28;20110;-71
2023/12/18 00:38:03;;;;;;;51.97;26.50;;;-0.30;99.90;;;;;;5042575;28;20123;-71
2023/12/18 00:40:28;;;;;;;58.22;27.33;;;-0.20;99.90;;;;;;5042987;28;20045;-71
2023/12/18 00:42:54;;;;;;;54.97;26.60;;;-0.20;99.90;;;;;;5050618;28;20505;-71
2023/12/18 00:45:19;;;;;;;57.33;27.83;;;-0.20;99.90;;;;;;5039482;28;20032;-71
2023/12/18 00:47:45;;;;;;;64.30;28.47;;;-0.40;99.90;;;;;;5041569;28;20292;-71
2023/12/18 00:50:10;;;;;;;50.88;27.38;;;-0.30;99.90;;;;;;5043460;28;20037;-71
2023/12/18 00:52:37;;;;;;;58.55;28.63;;;-0.30;99.90;;;;;;5036579;28;20374;-72
2023/12/18 00:55:03;;;;;;;62.28;27.90;;;-0.30;99.90;;;;;;5043864;28;20029;-71
2023/12/18 00:57:28;;;;;;;64.40;28.60;;;-0.40;99.90;;;;;;5043778;28;20147;-71
2023/12/18 00:59:54;;;;;;;62.30;28.45;;;-0.50;99.90;;;;;;5044692;28;20572;-71
2023/12/18 01:02:20;;;;;;;62.08;29.50;;;-0.50;99.90;;;;;;5036524;28;20531;-71
2023/12/18 01:04:45;;;;;;;62.33;30.42;;;-0.50;99.90;;;;;;5040458;28;20401;-71
2023/12/18 01:07:11;;;;;;;67.72;31.45;;;-0.40;99.90;;;;;;5044225;28;20116;-71
2023/12/18 01:09:37;;;;;;;73.53;29.90;;;-0.50;99.90;;;;;;5039161;28;20095;-71
2023/12/18 01:12:03;;;;;;;59.75;27.67;;;-0.40;99.90;;;;;;5040907;28;20446;-71
2023/12/18 01:14:29;;;;;;;57.03;27.63;;;-0.40;99.90;;;;;;5036656;28;20045;-71
2023/12/18 01:16:55;;;;;;;58.05;26.75;;;-0.40;99.90;;;;;;5040702;28;20037;-71
2023/12/18 01:19:21;;;;;;;70.72;28.83;;;-0.50;99.90;;;;;;5041185;28;20067;-71
2023/12/18 01:21:46;;;;;;;65.57;27.15;;;-0.40;99.90;;;;;;5044019;28;20116;-71
2023/12/18 01:24:12;;;;;;;54.92;26.83;;;-0.40;99.90;;;;;;5043056;28;20444;-71
2023/12/18 01:26:38;;;;;;;54.57;28.53;;;-0.50;99.90;;;;;;5039707;28;20460;-72
2023/12/18 01:29:06;;;;;;;61.03;27.70;;;-0.40;99.90;;;;;;5037614;28;20271;-70
2023/12/18 01:31:32;;;;;;;59.53;27.60;;;-0.40;99.90;;;;;;5045869;28;20033;-72
2023/12/18 01:33:58;;;;;;;59.65;26.83;;;-0.50;99.90;;;;;;5043354;28;20036;-72
2023/12/18 01:36:24;;;;;;;52.80;26.10;;;-0.50;99.90;;;;;;5039035;28;20103;-71
2023/12/18 01:38:50;;;;;;;51.15;25.70;;;-0.50;99.90;;;;;;5039252;28;20075;-72
2023/12/18 01:41:17;;;;;;;61.40;27.90;;;-0.50;99.90;;;;;;5040739;28;20034;-72
2023/12/18 01:43:43;;;;;;;53.63;24.65;;;-0.50;99.90;;;;;;5037408;28;20033;-72
2023/12/18 01:46:10;;;;;;;55.25;27.88;;;-0.50;99.90;;;;;;5040594;28;20500;-72
2023/12/18 01:48:36;;;;;;;62.85;27.70;;;-0.50;99.90;;;;;;5040702;28;20036;-72
2023/12/18 01:51:02;;;;;;;55.22;27.02;;;-0.50;99.90;;;;;;5036044;28;20037;-71
2023/12/18 01:53:34;;;;;;;58.78;28.80;;;-0.60;99.90;;;;;;5045326;28;20032;-71
2023/12/18 01:56:00;;;;;;;71.60;29.33;;;-0.60;99.90;;;;;;5040019;28;20039;-71
2023/12/18 01:58:27;;;;;;;61.38;28.63;;;-0.60;99.90;;;;;;5035930;28;20516;-71
2023/12/18 02:00:52;;;;;;;55.72;28.27;;;-0.60;99.90;;;;;;5030754;28;20030;-71
2023/12/18 02:03:19;;;;;;;56.15;27.40;;;-0.60;99.90;;;;;;5039402;28;20029;-71
2023/12/18 02:05:46;;;;;;;62.08;28.42;;;-0.70;99.90;;;;;;5038320;28;20401;-70
2023/12/18 02:08:12;;;;;;;58.40;28.02;;;-0.70;99.90;;;;;;5045446;28;20025;-70
2023/12/18 02:10:39;;;;;;;57.83;27.58;;;-0.70;99.90;;;;;;5034640;28;20029;-71
2023/12/18 02:13:04;;;;;;;50.95;25.25;;;-0.70;99.90;;;;;;5038785;28;20045;-71
2023/12/18 02:15:30;;;;;;;51.10;23.85;;;-0.80;99.90;;;;;;5041987;28;20024;-71
2023/12/18 02:17:55;;;;;;;54.28;25.88;;;-0.80;99.90;;;;;;5041615;28;20056;-71
2023/12/18 02:20:21;;;;;;;54.13;23.70;;;-0.80;99.90;;;;;;5041371;28;20485;-71
2023/12/18 02:22:47;;;;;;;50.67;21.45;;;-0.80;99.90;;;;;;5038863;28;20677;-71
2023/12/18 02:25:14;;;;;;;47.13;23.67;;;-0.80;99.90;;;;;;5040530;28;20036;-71
2023/12/18 02:27:40;;;;;;;53.47;22.52;;;-0.80;99.90;;;;;;5037611;28;20331;-71
2023/12/18 02:30:07;;;;;;;44.47;21.67;;;-0.90;99.90;;;;;;5041865;28;20115;-71
2023/12/18 02:32:35;;;;;;;47.88;23.40;;;-0.90;99.90;;;;;;5041250;28;20041;-71
2023/12/18 02:35:01;;;;;;;46.85;23.98;;;-0.80;99.90;;;;;;5043777;28;20043;-72
2023/12/18 02:37:27;;;;;;;54.83;24.77;;;-0.80;99.90;;;;;;5050804;28;20505;-72
2023/12/18 02:39:54;;;;;;;48.08;25.10;;;-0.80;99.90;;;;;;5050748;28;20123;-71
2023/12/18 02:42:20;;;;;;;60.40;27.05;;;-0.80;99.90;;;;;;5052293;28;20037;-71
2023/12/18 02:44:45;;;;;;;71.00;25.83;;;-0.80;99.90;;;;;;5050417;28;20045;-71
2023/12/18 02:47:11;;;;;;;72.70;25.00;;;-0.80;99.90;;;;;;5040302;28;20600;-71
2023/12/18 02:49:36;;;;;;;103.97;27.83;;;-0.80;99.90;;;;;;5030933;28;20029;-72
2023/12/18 02:52:02;;;;;;;84.07;25.42;;;-0.70;99.90;;;;;;5030932;28;20945;-72
2023/12/18 02:54:28;;;;;;;89.63;27.23;;;-0.70;99.90;;;;;;5030634;28;20056;-72
2023/12/18 02:56:53;;;;;;;70.40;26.20;;;-0.80;99.90;;;;;;5030522;28;20030;-71
2023/12/18 02:59:19;;;;;;;81.78;25.73;;;-0.90;99.90;;;;;;5030708;28;20120;-72
2023/12/18 03:01:44;;;;;;;105.37;30.17;;;-0.80;99.90;;;;;;5030383;28;20025;-72
2023/12/18 03:04:10;;;;;;;110.93;29.63;;;-0.80;99.90;;;;;;5030166;28;20786;-72
2023/12/18 03:06:35;;;;;;;123.00;30.30;;;-0.90;99.90;;;;;;5029994;28;20123;-71
2023/12/18 03:09:01;;;;;;;65.20;27.73;;;-0.90;99.90;;;;;;5030387;28;20125;-71
2023/12/18 03:11:27;;;;;;;109.50;28.38;;;-0.80;99.90;;;;;;5030585;28;20401;-72
2023/12/18 03:13:52;;;;;;;79.50;28.13;;;-0.90;99.90;;;;;;5030068;28;20505;-70
2023/12/18 03:16:18;;;;;;;73.70;28.40;;;-0.90;99.90;;;;;;5030067;28;20272;-71
2023/12/18 03:18:43;;;;;;;77.83;28.97;;;-0.80;99.90;;;;;;5030158;28;20295;-72
2023/12/18 03:21:10;;;;;;;69.77;25.03;;;-0.80;99.90;;;;;;5030298;28;20803;-71
2023/12/18 03:23:36;;;;;;;73.10;27.25;;;-0.80;99.90;;;;;;5029969;28;20500;-71
2023/12/18 03:26:01;;;;;;;68.45;26.75;;;-0.70;99.90;;;;;;5048299;28;20029;-71
2023/12/18 03:28:27;;;;;;;59.22;26.23;;;-0.70;99.90;;;;;;5050240;28;20036;-71
2023/12/18 03:30:52;;;;;;;66.93;27.87;;;-0.70;99.90;;;;;;5049817;28;20108;-72
2023/12/18 03:33:19;;;;;;;83.23;28.47;;;-0.70;99.90;;;;;;5049762;28;20588;-72
2023/12/18 03:35:44;;;;;;;92.30;28.52;;;-0.70;99.90;;;;;;5048253;28;20275;-72
2023/12/18 03:38:11;;;;;;;118.37;30.03;;;-0.70;99.90;;;;;;5049855;28;20115;-71
2023/12/18 03:40:37;;;;;;;162.85;28.50;;;-0.80;99.90;;;;;;5048766;28;20271;-72
2023/12/18 03:43:02;;;;;;;75.63;27.63;;;-0.80;99.90;;;;;;5050368;28;20029;-72
2023/12/18 03:45:28;;;;;;;62.63;25.60;;;-0.80;99.90;;;;;;5050766;28;20079;-71
2023/12/18 03:47:54;;;;;;;58.05;25.98;;;-0.90;99.90;;;;;;5049723;28;20033;-71
2023/12/18 03:50:19;;;;;;;61.00;27.83;;;-0.90;99.90;;;;;;5049554;28;20031;-71
2023/12/18 03:52:45;;;;;;;54.88;25.85;;;-1.00;99.90;;;;;;5049555;28;20044;-71
2023/12/18 03:55:11;;;;;;;51.30;25.27;;;-1.10;99.90;;;;;;5049161;28;20037;-71
2023/12/18 03:57:36;;;;;;;57.05;26.33;;;-1.10;99.90;;;;;;5048949;28;20060;-71
2023/12/18 04:00:03;;;;;;;63.63;27.77;;;-1.10;99.90;;;;;;5049118;28;20412;-70
2023/12/18 04:02:28;;;;;;;;;;;-1.00;99.90;;;;;;5049895;28;20834;-71
2023/12/18 04:04:54;;;;;;;54.92;22.25;;;-0.90;99.90;;;;;;5049567;28;19998;-70
2023/12/18 04:07:20;;;;;;;58.42;23.48;;;-0.80;99.90;;;;;;5049307;28;20029;-71
2023/12/18 04:09:45;;;;;;;52.70;22.75;;;-0.60;99.90;;;;;;5049008;28;20064;-70
2023/12/18 04:12:11;;;;;;;45.78;22.30;;;-0.70;99.90;;;;;;5049514;28;20124;-69
2023/12/18 04:14:36;;;;;;;55.25;22.98;;;-0.60;99.90;;;;;;5049443;28;20414;-70
2023/12/18 04:17:02;;;;;;;56.55;23.55;;;-0.60;99.90;;;;;;5048787;28;20036;-69
2023/12/18 04:19:28;;;;;;;44.72;20.98;;;-0.50;99.90;;;;;;5049576;28;20029;-69
2023/12/18 04:21:53;;;;;;;50.28;22.38;;;-0.50;99.90;;;;;;5049263;28;20029;-70
2023/12/18 04:24:19;;;;;;;53.22;23.33;;;-0.30;99.90;;;;;;5049189;28;20045;-70
2023/12/18 04:26:44;;;;;;;54.17;22.40;;;-0.20;99.90;;;;;;5053155;28;20035;-69
2023/12/18 04:29:10;;;;;;;57.07;22.60;;;-0.20;99.90;;;;;;5067371;28;20275;-70
2023/12/18 04:31:35;;;;;;;55.30;23.38;;;-0.30;99.90;;;;;;5065551;28;20251;-70
2023/12/18 04:34:01;;;;;;;53.47;22.15;;;-0.30;99.90;;;;;;5069046;28;20070;-70
2023/12/18 04:36:27;;;;;;;54.58;21.67;;;-0.40;99.90;;;;;;5068452;28;20036;-70
2023/12/18 04:38:52;;;;;;;57.80;22.95;;;-0.50;99.90;;;;;;5068107;28;20036;-69
2023/12/18 04:41:19;;;;;;;53.35;21.38;;;-0.50;99.90;;;;;;5068401;28;20404;-69
2023/12/18 04:43:45;;;;;;;46.65;22.05;;;-0.40;99.90;;;;;;5068628;28;20032;-69
2023/12/18 04:46:11;;;;;;;51.45;23.50;;;-0.50;99.90;;;;;;5068343;28;20032;-70
2023/12/18 04:48:36;;;;;;;52.75;24.60;;;-0.60;99.90;;;;;;5068568;28;20113;-70
2023/12/18 04:51:02;;;;;;;53.53;23.93;;;-0.70;99.90;;;;;;5068249;28;20032;-70
2023/12/18 04:53:28;;;;;;;57.38;26.27;;;-0.80;99.90;;;;;;5054711;28;20452;-70
2023/12/18 04:55:54;;;;;;;60.47;27.48;;;-0.90;99.90;;;;;;5047754;28;20025;-70
2023/12/18 04:58:20;;;;;;;59.38;27.00;;;-0.90;99.90;;;;;;5047973;28;20056;-70
2023/12/18 05:00:45;;;;;;;70.30;30.58;;;-0.90;99.90;;;;;;5048107;28;20060;-70
2023/12/18 05:03:11;;;;;;;69.20;29.30;;;-0.90;99.90;;;;;;5048199;28;20025;-71
2023/12/18 05:05:36;;;;;;;69.57;28.30;;;-1.00;99.90;;;;;;5063081;28;20033;-70
2023/12/18 05:08:02;;;;;;;57.20;27.07;;;-1.00;99.90;;;;;;5047611;28;20321;-70
2023/12/18 05:10:28;;;;;;;56.03;25.42;;;-1.10;99.90;;;;;;5047931;28;20443;-70
2023/12/18 05:12:53;;;;;;;52.70;25.27;;;-1.10;99.90;;;;;;5047422;28;20029;-70
2023/12/18 05:15:19;;;;;;;60.53;27.27;;;-1.10;99.90;;;;;;5047980;28;20036;-71
2023/12/18 05:17:45;;;;;;;65.10;26.73;;;-1.10;99.90;;;;;;5063083;28;20388;-72
2023/12/18 05:20:12;;;;;;;61.87;27.43;;;-1.10;99.90;;;;;;5047871;28;20263;-70
2023/12/18 05:22:38;;;;;;;51.92;24.88;;;-1.10;99.90;;;;;;5047771;28;20955;-70
2023/12/18 05:25:04;;;;;;;57.72;25.75;;;-1.20;99.90;;;;;;5047862;28;20033;-71
2023/12/18 05:27:29;;;;;;;63.92;26.83;;;-1.30;99.90;;;;;;5058728;28;20127;-70
2023/12/18 05:29:55;;;;;;;59.33;25.92;;;-1.30;99.90;;;;;;5066742;28;20032;-71
2023/12/18 05:32:21;;;;;;;58.28;24.50;;;-1.20;99.90;;;;;;5068388;28;20128;-70
2023/12/18 05:34:48;;;;;;;57.35;24.85;;;-1.20;99.90;;;;;;5050838;28;20040;-70
2023/12/18 05:37:13;;;;;;;55.17;25.20;;;-1.20;99.90;;;;;;5048809;28;20025;-70
2023/12/18 05:39:39;;;;;;;54.75;25.70;;;-1.30;99.90;;;;;;5047789;28;20044;-70
2023/12/18 05:42:05;;;;;;;52.07;24.37;;;-1.30;99.90;;;;;;5047764;28;20033;-70
2023/12/18 05:44:30;;;;;;;53.40;23.25;;;-1.20;99.90;;;;;;5047889;28;20259;-70
2023/12/18 05:46:56;;;;;;;55.85;24.58;;;-1.10;99.90;;;;;;5047749;28;20119;-69
2023/12/18 05:49:21;;;;;;;53.43;20.90;;;-1.10;99.90;;;;;;5046895;28;20083;-69
2023/12/18 05:51:47;;;;;;;52.28;22.48;;;-1.10;99.90;;;;;;5047198;28;20263;-69
2023/12/18 05:54:13;;;;;;;53.90;21.52;;;-0.80;99.90;;;;;;5047260;28;20036;-69
2023/12/18 05:56:38;;;;;;;47.53;21.23;;;-0.60;99.90;;;;;;5047103;28;20108;-70
2023/12/18 05:59:04;;;;;;;55.97;21.95;;;-0.50;99.90;;;;;;5046877;28;20562;-69
2023/12/18 06:01:29;;;;;;;49.38;19.98;;;-0.40;99.90;;;;;;5047485;28;20033;-69
2023/12/18 06:03:55;;;;;;;56.83;21.52;;;-0.50;99.90;;;;;;5052225;28;20484;-69
2023/12/18 06:06:20;;;;;;;44.05;20.58;;;-0.40;99.90;;;;;;5053804;28;20524;-70
2023/12/18 06:08:46;;;;;;;56.25;21.50;;;-0.50;99.90;;;;;;5053403;28;20040;-69
2023/12/18 06:11:12;;;;;;;52.45;20.20;;;-0.60;99.90;;;;;;5048522;28;20051;-69
2023/12/18 06:13:39;;;;;;;59.53;25.42;;;-0.70;99.90;;;;;;5051763;28;20063;-70
2023/12/18 06:16:05;;;;;;;57.03;25.45;;;-0.80;99.90;;;;;;5043743;28;20059;-67
2023/12/18 06:18:30;;;;;;;59.90;26.42;;;-0.90;99.90;;;;;;5046472;28;20045;-69
2023/12/18 06:20:56;;;;;;;63.00;26.30;;;-1.00;99.90;;;;;;5047673;28;20036;-68
2023/12/18 06:23:21;;;;;;;62.73;25.83;;;-1.10;99.90;;;;;;5044780;28;20107;-68
2023/12/18 06:25:47;;;;;;;62.07;27.43;;;-1.10;99.90;;;;;;5044335;28;20283;-68
2023/12/18 06:28:13;;;;;;;57.05;25.90;;;-1.10;99.90;;;;;;5046860;28;20371;-69
2023/12/18 06:30:39;;;;;;;55.60;23.98;;;-1.20;99.90;;;;;;5040434;28;20104;-69
2023/12/18 06:33:04;;;;;;;66.05;25.15;;;-1.20;99.90;;;;;;5040071;28;20409;-69
2023/12/18 06:35:30;;;;;;;55.45;23.63;;;-1.20;99.90;;;;;;5044845;28;20029;-69
2023/12/18 06:37:56;;;;;;;55.55;24.23;;;-1.20;99.90;;;;;;5043807;28;20599;-69
2023/12/18 06:40:22;;;;;;;51.40;23.83;;;-1.30;99.90;;;;;;5044042;28;20052;-69
2023/12/18 06:42:48;;;;;;;49.42;22.27;;;-1.30;99.90;;;;;;5041768;28;20035;-68
2023/12/18 06:45:13;;;;;;;48.13;23.48;;;-1.30;99.90;;;;;;5037974;28;20029;-69
2023/12/18 06:47:39;;;;;;;48.85;23.38;;;-1.40;99.90;;;;;;5038249;28;20069;-69
2023/12/18 06:50:06;;;;;;;46.97;23.00;;;-1.30;99.90;;;;;;5042142;28;20095;-69
2023/12/18 06:52:31;;;;;;;51.58;23.38;;;-1.40;99.90;;;;;;5040483;28;20025;-69
2023/12/18 06:54:57;;;;;;;48.13;22.42;;;-1.40;99.90;;;;;;5040094;28;20049;-69
2023/12/18 06:57:23;;;;;;;51.45;22.33;;;-1.50;99.90;;;;;;5057518;28;20029;-69
2023/12/18 06:59:48;;;;;;;45.15;22.00;;;-1.50;99.90;;;;;;5043164;28;20036;-69
2023/12/18 07:02:14;;;;;;;53.60;23.42;;;-1.50;99.90;;;;;;5043147;28;20029;-69
2023/12/18 07:04:39;;;;;;;53.67;23.08;;;-1.50;99.90;;;;;;5040713;28;20036;-69
2023/12/18 07:07:05;;;;;;;55.05;23.45;;;-1.50;99.90;;;;;;5041440;28;20036;-68
2023/12/18 07:09:31;;;;;;;59.70;23.60;;;-1.50;99.90;;;;;;5040721;28;20033;-69
2023/12/18 07:11:56;;;;;;;47.33;22.52;;;-1.40;99.90;;;;;;5044562;28;20036;-69
2023/12/18 07:14:22;;;;;;;53.03;23.95;;;-1.40;99.90;;;;;;5041106;28;20505;-69
2023/12/18 07:16:47;;;;;;;49.08;23.33;;;-1.40;99.90;;;;;;5041140;28;20033;-70
2023/12/18 07:19:14;;;;;;;50.75;23.75;;;-1.40;99.90;;;;;;5035307;28;20036;-69
2023/12/18 07:21:40;;;;;;;;;;;-1.40;99.90;;;;;;5037263;28;20087;-69
2023/12/18 07:24:06;;;;;;;54.83;23.30;;;-1.50;99.90;;;;;;5039693;28;19909;-70
2023/12/18 07:26:31;;;;;;;54.05;24.60;;;-1.50;99.90;;;;;;5042996;28;20030;-69
2023/12/18 07:28:57;;;;;;;64.22;26.40;;;-1.50;99.90;;;;;;5039451;28;20033;-69
2023/12/18 07:31:23;;;;;;;88.25;30.17;;;-1.40;99.90;;;;;;5037763;28;20704;-69
2023/12/18 07:33:49;;;;;;;73.63;31.73;;;-1.40;99.90;;;;;;5039043;28;20106;-69
2023/12/18 07:36:14;;;;;;;80.20;30.88;;;-1.40;99.90;;;;;;5041077;28;20025;-70
2023/12/18 07:38:40;;;;;;;76.40;29.00;;;-1.40;99.90;;;;;;5034654;28;20091;-69
2023/12/18 07:41:05;;;;;;;62.33;26.15;;;-1.40;99.90;;;;;;5035671;28;20280;-69
2023/12/18 07:43:31;;;;;;;53.28;24.27;;;-1.30;99.90;;;;;;5039820;28;20413;-69
2023/12/18 07:45:57;;;;;;;51.97;23.48;;;-1.30;99.90;;;;;;5038608;28;20033;-69
2023/12/18 07:48:24;;;;;;;50.70;23.27;;;-1.30;99.90;;;;;;5034635;28;20444;-68
2023/12/18 07:50:50;;;;;;;58.38;23.40;;;-1.30;99.90;;;;;;5036837;28;20037;-69
2023/12/18 07:53:16;;;;;;;65.03;24.15;;;-1.30;99.90;;;;;;5038888;28;20090;-69
2023/12/18 07:55:42;;;;;;;54.75;22.70;;;-1.20;99.90;;;;;;5042586;28;20048;-70
2023/12/18 07:58:08;;;;;;;56.15;23.52;;;-1.10;99.90;;;;;;5039938;28;20038;-69
2023/12/18 08:00:33;;;;;;;54.55;24.15;;;-0.90;99.90;;;;;;5035778;28;20030;-70
2023/12/18 08:03:02;;;;;;;63.75;25.05;;;-0.80;99.90;;;;;;5035014;28;20476;-69
2023/12/18 08:05:28;;;;;;;57.60;23.60;;;-0.70;99.90;;;;;;5034048;28;20037;-71
2023/12/18 08:07:53;;;;;;;;;;;-0.60;99.90;;;;;;5039752;28;20472;-69
2023/12/18 08:10:19;;;;;;;69.53;22.60;;;-0.50;99.90;;;;;;5040554;28;19944;-69
2023/12/18 08:12:45;;;;;;;53.53;22.48;;;-0.40;99.90;;;;;;5042274;28;20087;-70
2023/12/18 08:15:10;;;;;;;55.58;21.83;;;-0.30;99.90;;;;;;5033935;28;20041;-70
2023/12/18 08:17:38;;;;;;;43.05;20.08;;;-0.20;99.90;;;;;;5038901;28;20111;-71
2023/12/18 08:20:05;;;;;;;46.00;20.73;;;-0.40;99.90;;;;;;5044340;28;20029;-70
2023/12/18 08:22:30;;;;;;;48.08;23.05;;;-0.50;99.90;;;;;;5043369;28;20029;-70
2023/12/18 08:24:56;;;;;;;54.60;22.30;;;-0.50;99.90;;;;;;5036999;28;20033;-70
2023/12/18 08:27:22;;;;;;;44.13;21.17;;;-0.50;99.90;;;;;;5035415;28;20449;-69
2023/12/18 08:29:47;;;;;;;52.73;23.03;;;-0.40;99.90;;;;;;5037034;28;20060;-69
2023/12/18 08:32:13;;;;;;;49.07;21.67;;;-0.40;99.90;;;;;;5038144;28;20302;-67
2023/12/18 08:34:38;;;;;;;51.42;23.23;;;-0.40;99.90;;;;;;5036451;28;20697;-71
2023/12/18 08:37:06;;;;;;;41.87;21.37;;;-0.40;99.90;;;;;;5035821;28;20067;-70
2023/12/18 08:39:32;;;;;;;46.28;21.55;;;-0.40;99.90;;;;;;5032352;28;20037;-71
2023/12/18 08:41:57;;;;;;;44.17;22.15;;;-0.20;99.90;;;;;;5041280;28;20045;-69
2023/12/18 08:44:23;;;;;;;63.22;23.48;;;0.00;99.90;;;;;;5037067;28;20413;-70
2023/12/18 08:46:49;;;;;;;54.03;23.08;;;1.00;99.90;;;;;;5035360;28;20836;-70
2023/12/18 08:49:14;;;;;;;71.68;24.65;;;4.00;99.90;;;;;;5036069;28;20025;-69
2023/12/18 08:51:40;;;;;;;64.05;23.60;;;6.00;97.50;;;;;;5020254;28;20045;-68
2023/12/18 08:54:06;;;;;;;47.85;22.80;;;5.90;94.80;;;;;;5035910;28;20068;-70
2023/12/18 08:56:32;;;;;;;51.30;22.92;;;3.70;99.90;;;;;;5039790;28;20585;-69
2023/12/18 08:58:59;;;;;;;44.63;21.23;;;2.70;99.90;;;;;;5032477;28;20045;-69
2023/12/18 09:01:24;;;;;;;41.58;20.65;;;2.20;99.90;;;;;;5044753;28;20512;-69
2023/12/18 09:03:51;;;;;;;57.10;21.70;;;1.90;99.90;;;;;;5038561;28;20034;-69
2023/12/18 09:06:16;;;;;;;;;;;2.10;99.90;;;;;;5036556;28;20275;-69
2023/12/18 09:08:42;;;;;;;44.88;21.90;;;2.00;99.90;;;;;;5032874;28;20292;-68
2023/12/18 09:11:08;;;;;;;46.10;22.93;;;1.90;99.90;;;;;;5040308;28;20057;-69
2023/12/18 09:13:35;;;;;;;;;;;1.80;99.90;;;;;;5037085;28;20268;-69
2023/12/18 09:16:06;;;;;;;60.53;26.13;;;1.70;99.90;;;;;;5032690;28;20032;-70
2023/12/18 09:18:32;;;;;;;65.63;29.77;;;1.50;99.90;;;;;;5037712;28;20048;-70
2023/12/18 09:20:57;;;;;;;65.60;29.92;;;1.50;99.90;;;;;;5038742;28;20033;-70
2023/12/18 09:23:23;;;;;;;58.38;26.58;;;1.50;99.90;;;;;;5039633;28;20404;-70
2023/12/18 09:25:49;;;;;;;64.90;27.33;;;1.60;99.90;;;;;;5035677;28;20049;-68
2023/12/18 09:28:15;;;;;;;63.03;28.17;;;1.60;99.90;;;;;;5037679;28;20038;-67
2023/12/18 09:30:41;;;;;;;53.80;25.13;;;1.70;99.90;;;;;;5037740;28;20035;-69
2023/12/18 09:33:06;;;;;;;66.07;27.65;;;1.80;99.90;;;;;;5040316;28;20759;-69
2023/12/18 09:35:32;;;;;;;64.10;27.48;;;1.80;99.90;;;;;;5030340;28;20029;-69
2023/12/18 09:37:58;;;;;;;77.20;31.13;;;1.80;99.90;;;;;;5036933;28;20076;-70
2023/12/18 09:40:24;;;;;;;71.57;34.88;;;1.80;99.90;;;;;;5037020;28;20516;-69
2023/12/18 09:42:54;;;;;;;72.18;35.33;;;1.90;99.90;;;;;;5035025;28;20091;-69
2023/12/18 09:45:23;;;;;;;67.75;35.85;;;1.90;99.90;;;;;;5037022;28;20615;-69
2023/12/18 09:47:49;;;;;;;62.10;33.75;;;1.80;99.90;;;;;;5033712;28;20021;-71
2023/12/18 09:50:16;;;;;;;65.55;33.38;;;1.80;99.90;;;;;;5035289;28;20029;-69
2023/12/18 09:52:49;;;;;;;66.25;32.28;;;1.80;99.90;;;;;;5034275;28;20366;-69
2023/12/18 09:55:15;;;;;;;66.95;32.80;;;1.80;99.90;;;;;;5041725;28;20397;-69
2023/12/18 09:57:41;;;;;;;60.45;31.83;;;1.80;99.90;;;;;;5042775;28;20024;-68
2023/12/18 10:00:11;;;;;;;56.63;29.85;;;1.70;99.90;;;;;;5035497;28;20045;-69
2023/12/18 10:02:38;;;;;;;75.00;33.85;;;1.80;99.90;;;;;;5037965;28;20486;-69
2023/12/18 10:05:04;;;;;;;63.45;33.85;;;1.80;99.90;;;;;;5036140;28;20032;-69
2023/12/18 10:07:29;;;;;;;68.22;32.80;;;1.80;99.90;;;;;;5034974;28;20033;-68
2023/12/18 10:09:55;;;;;;;62.50;34.03;;;1.80;99.90;;;;;;5054984;28;20071;-69
2023/12/18 10:12:20;;;;;;;73.07;36.87;;;1.90;99.90;;;;;;5033694;28;20040;-69
2023/12/18 10:14:46;;;;;;;72.40;38.43;;;2.00;99.90;;;;;;5033596;28;20099;-68
2023/12/18 10:17:11;;;;;;;69.70;37.20;;;2.00;99.90;;;;;;5034625;28;20901;-68
2023/12/18 10:19:43;;;;;;;79.63;37.63;;;2.00;99.90;;;;;;5039316;28;20104;-69
2023/12/18 10:22:08;;;;;;;75.50;40.42;;;2.00;99.90;;;;;;5039177;28;20290;-68
2023/12/18 10:24:40;;;;;;;72.73;36.97;;;2.10;99.90;;;;;;5036614;28;20037;-69
2023/12/18 10:27:06;;;;;;;68.72;34.20;;;2.10;99.90;;;;;;5042320;28;20141;-69
2023/12/18 10:29:31;;;;;;;64.50;33.23;;;2.20;99.90;;;;;;5035847;28;20117;-71
2023/12/18 10:31:58;;;;;;;66.07;33.30;;;2.20;99.90;;;;;;5033591;28;20893;-69
2023/12/18 10:34:25;;;;;;;78.30;35.72;;;2.20;99.90;;;;;;5036761;28;20037;-71
2023/12/18 10:36:55;;;;;;;64.13;33.60;;;2.20;99.90;;;;;;5035641;28;20032;-71
2023/12/18 10:39:25;;;;;;;65.25;31.08;;;2.20;99.90;;;;;;5034760;28;20086;-71
2023/12/18 10:41:54;;;;;;;65.22;32.67;;;2.20;99.90;;;;;;5043409;28;20028;-71
2023/12/18 10:44:21;;;;;;;64.85;33.53;;;2.30;99.90;;;;;;5034318;28;20037;-71
2023/12/18 10:46:49;;;;;;;63.35;33.08;;;2.30;99.90;;;;;;5037436;28;20021;-71
2023/12/18 10:49:16;;;;;;;62.20;31.73;;;2.40;99.90;;;;;;5036193;28;20528;-71
2023/12/18 10:51:44;;;;;;;63.30;31.02;;;2.40;99.90;;;;;;5042473;28;20029;-71
2023/12/18 10:54:11;;;;;;;58.00;30.38;;;2.40;99.90;;;;;;5046726;28;20037;-71
2023/12/18 10:56:39;;;;;;;58.42;28.42;;;2.50;99.90;;;;;;5036803;28;20024;-72
2023/12/18 10:59:07;;;;;;;52.47;27.08;;;2.60;99.90;;;;;;5045051;28;20033;-71
2023/12/18 11:01:34;;;;;;;55.22;27.90;;;2.70;99.90;;;;;;5047412;28;20530;-71
2023/12/18 11:04:01;;;;;;;58.97;26.85;;;2.60;99.90;;;;;;5045745;28;20033;-71
2023/12/18 11:06:29;;;;;;;;;;;2.60;99.90;;;;;;5050675;28;20385;-71
2023/12/18 11:08:55;;;;;;;49.65;26.05;;;2.60;99.90;;;;;;5046077;28;19913;-71
2023/12/18 11:11:22;;;;;;;58.37;27.90;;;2.70;99.90;;;;;;5046230;28;20067;-71
2023/12/18 11:14:30;;;;;;;51.22;25.48;;;2.80;99.90;;;;;;5045972;28;20497;-72
2023/12/18 11:17:02;;;;;;;49.92;25.02;;;2.80;99.90;;;;;;5045543;28;20618;-72
2023/12/18 11:19:46;;;;;;;52.90;25.30;;;2.90;99.90;;;;;;5045299;28;20047;-72
2023/12/18 11:22:15;;;;;;;51.78;24.15;;;2.80;99.90;;;;;;5036644;28;20033;-71
2023/12/18 11:24:41;;;;;;;52.15;24.40;;;2.80;99.90;;;;;;5046002;28;20076;-71
2023/12/18 11:27:07;;;;;;;52.67;25.45;;;2.80;99.90;;;;;;5038963;28;20094;-71
2023/12/18 11:29:46;;;;;;;;;;;2.80;99.90;;;;;;5052728;28;20021;-71
2023/12/18 11:32:45;;;;;;;44.10;22.88;;;2.80;99.90;;;;;;5045625;28;19952;-71
2023/12/18 11:35:14;;;;;;;49.58;25.17;;;2.90;99.90;;;;;;5045111;28;20044;-72
2023/12/18 11:37:48;;;;;;;45.95;22.55;;;3.00;99.90;;;;;;5040729;28;20037;-72
2023/12/18 11:40:30;;;;;;;47.40;22.48;;;3.10;99.90;;;;;;5043220;28;20083;-71
2023/12/18 11:42:56;;;;;;;48.20;24.45;;;3.20;99.90;;;;;;5041743;28;20064;-71
2023/12/18 11:45:23;;;;;;;46.97;22.37;;;3.30;99.90;;;;;;5043049;28;20064;-71
2023/12/18 11:47:57;;;;;;;50.50;22.75;;;3.20;99.90;;;;;;5042142;28;20036;-71
2023/12/18 11:50:27;;;;;;;44.00;21.90;;;3.20;99.90;;;;;;5039567;28;20041;-71
2023/12/18 11:52:56;;;;;;;53.15;24.67;;;3.30;99.90;;;;;;5035979;28;20127;-71
2023/12/18 11:55:37;;;;;;;45.97;23.80;;;3.50;99.90;;;;;;5040476;28;20112;-71
2023/12/18 11:58:03;;;;;;;52.42;24.88;;;3.60;99.90;;;;;;5048964;28;20052;-71
2023/12/18 12:00:29;;;;;;;;;;;3.60;99.90;;;;;;5040235;28;20102;-71
2023/12/18 12:02:55;;;;;;;47.38;22.38;;;3.70;99.90;;;;;;5046625;28;19999;-71
2023/12/18 12:05:21;;;;;;;51.78;26.75;;;3.70;99.90;;;;;;5061177;28;20128;-71
2023/12/18 12:07:53;;;;;;;47.47;23.25;;;3.60;99.90;;;;;;5042527;28;20132;-71
2023/12/18 12:10:20;;;;;;;45.13;23.48;;;3.70;99.90;;;;;;5059467;28;20049;-72
2023/12/18 12:12:53;;;;;;;47.88;23.67;;;3.70;99.90;;;;;;5046937;28;20025;-71
2023/12/18 12:15:19;;;;;;;46.70;24.02;;;3.90;99.90;;;;;;5079458;28;20025;-71
2023/12/18 12:17:44;;;;;;;47.15;24.70;;;4.00;99.90;;;;;;5046822;28;20028;-72
2023/12/18 12:20:13;;;;;;;50.43;25.13;;;4.00;99.90;;;;;;5045340;28;20098;-71
2023/12/18 12:22:39;;;;;;;56.15;25.58;;;4.00;99.90;;;;;;5043392;28;20020;-70
2023/12/18 12:25:06;;;;;;;47.17;23.77;;;4.20;99.90;;;;;;5043727;28;20429;-71
2023/12/18 12:27:32;;;;;;;49.90;24.00;;;4.30;99.90;;;;;;5044103;28;20029;-71
2023/12/18 12:29:58;;;;;;;55.90;25.25;;;4.40;99.90;;;;;;5051318;28;20033;-71